createdAt,value
2023-03-29T00:03:15.854Z,10.33
2023-03-29T00:08:22.095Z,11.13
2023-03-29T00:13:28.599Z,9.68
2023-03-29T00:18:33.440Z,9.47
2023-03-29T00:23:36.833Z,11.09
2023-03-29T00:28:40.269Z,11.10
2023-03-29T00:33:45.860Z,45.75
2023-03-29T00:38:49.396Z,13.98
2023-03-29T00:43:57.487Z,11.07
2023-03-29T00:49:08.878Z,11.01
2023-03-29T00:54:19.721Z,10.89
2023-03-29T00:59:29.792Z,11.41
2023-03-29T01:04:40.657Z,10.94
2023-03-29T01:09:47.940Z,10.96
2023-03-29T01:14:59.035Z,10.85
2023-03-29T01:20:13.539Z,11.59
2023-03-29T01:25:26.718Z,11.11
2023-03-29T01:30:34.707Z,11.09
2023-03-29T01:35:44.818Z,11.84
2023-03-29T01:40:50.499Z,11.48
2023-03-29T01:46:03.240Z,22.26
2023-03-29T01:51:10.618Z,12.72
2023-03-29T01:56:16.680Z,12.33
2023-03-29T02:01:26.027Z,12.35
2023-03-29T02:06:32.925Z,14.33
2023-03-29T02:11:37.724Z,12.78
2023-03-29T02:16:42.476Z,12.37
2023-03-29T02:21:53.438Z,12.20
2023-03-29T02:26:57.136Z,15.39
2023-03-29T02:32:08.164Z,12.24
2023-03-29T02:37:16.187Z,12.06
2023-03-29T02:42:23.835Z,20.28
2023-03-29T02:47:34.818Z,12.94
2023-03-29T02:52:42.704Z,14.83
2023-03-29T02:57:48.359Z,12.36
2023-03-29T03:02:55.672Z,10.29
2023-03-29T03:08:01.446Z,10.17
2023-03-29T03:13:07.216Z,9.95
2023-03-29T03:18:14.248Z,10.03
2023-03-29T03:23:20.696Z,10.91
2023-03-29T03:28:25.247Z,11.77
2023-03-29T03:33:30.893Z,10.46
2023-03-29T03:39:09.293Z,11.94
2023-03-29T03:44:13.338Z,11.09
2023-03-29T03:49:22.881Z,10.28
2023-03-29T03:54:28.850Z,10.42
2023-03-29T03:59:53.659Z,10.10
2023-03-29T04:05:05.190Z,10.59
2023-03-29T04:10:12.603Z,11.07
2023-03-29T04:15:26.839Z,10.40
2023-03-29T04:20:40.315Z,9.71
2023-03-29T04:25:44.393Z,11.48
2023-03-29T04:31:06.736Z,10.27
2023-03-29T04:36:32.983Z,9.92
2023-03-29T04:41:36.591Z,10.91
2023-03-29T04:46:50.279Z,11.14
2023-03-29T04:52:33.146Z,10.64
2023-03-29T04:57:38.435Z,11.13
2023-03-29T05:02:47.593Z,11.10
2023-03-29T05:07:53.172Z,13.55
2023-03-29T05:13:01.357Z,12.64
2023-03-29T05:18:08.156Z,12.83
2023-03-29T05:23:17.581Z,13.26
2023-03-29T05:28:40.902Z,13.11
2023-03-29T05:33:49.136Z,14.49
2023-03-29T05:38:55.140Z,14.71
2023-03-29T05:43:59.808Z,15.77
2023-03-29T05:49:08.933Z,13.24
2023-03-29T05:54:36.915Z,13.90
2023-03-29T05:59:44.306Z,17.22
2023-03-29T06:04:48.745Z,14.57
2023-03-29T06:10:02.880Z,12.39
2023-03-29T06:15:07.040Z,17.96
2023-03-29T06:20:22.147Z,11.64
2023-03-29T06:25:32.258Z,11.40
2023-03-29T06:30:35.989Z,11.86
2023-03-29T06:35:42.727Z,11.67
2023-03-29T06:40:51.525Z,11.78
2023-03-29T06:45:57.696Z,11.68
2023-03-29T06:51:09.131Z,10.11
2023-03-29T06:56:17.702Z,10.53
2023-03-29T07:01:33.153Z,11.42
2023-03-29T07:06:48.311Z,10.71
2023-03-29T07:11:54.513Z,10.11
2023-03-29T07:17:04.225Z,9.78
2023-03-29T07:22:15.333Z,9.68
2023-03-29T07:27:27.679Z,8.77
2023-03-29T07:32:31.809Z,10.23
2023-03-29T07:37:56.092Z,10.04
2023-03-29T07:43:09.002Z,11.14
2023-03-29T07:48:13.216Z,12.26
2023-03-29T07:53:27.041Z,10.33
2023-03-29T07:58:34.369Z,12.96
2023-03-29T08:03:37.964Z,13.87
2023-03-29T08:08:42.810Z,13.13
2023-03-29T08:13:51.562Z,11.85
2023-03-29T08:19:33.202Z,11.53
2023-03-29T08:24:43.672Z,17.52
2023-03-29T08:29:48.712Z,11.92
2023-03-29T08:34:55.273Z,10.23
2023-03-29T08:40:03.637Z,10.55
2023-03-29T08:45:33.885Z,10.87
2023-03-29T08:50:42.182Z,10.45
2023-03-29T08:55:47.364Z,10.15
2023-03-29T09:01:11.627Z,8.89
2023-03-29T09:06:28.120Z,9.22
2023-03-29T09:11:51.539Z,9.36
2023-03-29T09:17:02.202Z,9.78
2023-03-29T09:22:10.784Z,8.50
2023-03-29T09:27:19.984Z,8.67
2023-03-29T09:32:33.027Z,10.75
2023-03-29T09:37:42.592Z,8.19
2023-03-29T09:42:52.057Z,9.30
2023-03-29T09:48:02.040Z,9.36
2023-03-29T09:53:10.500Z,8.34
2023-03-29T09:58:23.376Z,7.20
2023-03-29T10:03:31.380Z,8.40
2023-03-29T10:08:49.642Z,8.26
2023-03-29T10:13:57.477Z,10.38
2023-03-29T10:19:08.358Z,7.93
2023-03-29T10:24:11.821Z,8.72
2023-03-29T10:29:15.390Z,7.60
2023-03-29T10:34:25.287Z,8.76
2023-03-29T10:39:31.893Z,8.59
2023-03-29T10:44:36.859Z,9.30
2023-03-29T10:49:44.939Z,9.16
2023-03-29T10:54:49.960Z,7.85
2023-03-29T11:00:02.675Z,9.24
2023-03-29T11:05:18.587Z,7.95
2023-03-29T11:10:33.933Z,8.70
2023-03-29T11:15:48.175Z,8.41
2023-03-29T11:21:00.587Z,9.40
2023-03-29T11:26:15.067Z,8.76
2023-03-29T11:31:26.890Z,8.30
2023-03-29T11:36:39.996Z,8.39
2023-03-29T11:41:48.034Z,8.51
2023-03-29T11:46:57.217Z,9.56
2023-03-29T11:52:07.149Z,8.03
2023-03-29T11:57:18.035Z,7.59
2023-03-29T12:02:28.039Z,8.34
2023-03-29T12:07:36.941Z,8.43
2023-03-29T12:12:46.826Z,8.28
2023-03-29T12:17:57.130Z,8.67
2023-03-29T12:23:06.832Z,8.82
2023-03-29T12:28:33.321Z,9.63
2023-03-29T12:33:55.624Z,8.16
2023-03-29T12:39:20.529Z,8.50
2023-03-29T12:44:46.003Z,8.41
2023-03-29T12:49:59.024Z,7.99
2023-03-29T12:55:05.644Z,8.73
2023-03-29T13:00:14.074Z,9.34
2023-03-29T13:05:31.835Z,9.25
2023-03-29T13:10:43.112Z,8.93
2023-03-29T13:15:46.899Z,13.98
2023-03-29T13:20:59.943Z,9.33
2023-03-29T13:26:16.881Z,8.66
2023-03-29T13:31:30.946Z,7.99
2023-03-29T13:36:46.793Z,8.90
2023-03-29T13:41:55.301Z,8.19
2023-03-29T13:47:16.414Z,9.25
2023-03-29T13:52:25.636Z,7.90
2023-03-29T13:57:37.631Z,8.54
2023-03-29T14:02:46.645Z,7.37
2023-03-29T14:07:55.548Z,7.99
2023-03-29T14:13:04.776Z,11.21
2023-03-29T14:18:12.130Z,8.55
2023-03-29T14:23:20.740Z,8.84
2023-03-29T14:28:27.075Z,8.82
2023-03-29T14:33:33.554Z,8.17
2023-03-29T14:38:37.649Z,9.39
2023-03-29T14:43:46.521Z,7.37
2023-03-29T14:48:50.562Z,8.11
2023-03-29T14:53:57.003Z,8.05
2023-03-29T14:59:05.146Z,7.36
2023-03-29T15:04:14.024Z,7.85
2023-03-29T15:09:20.514Z,7.92
2023-03-29T15:14:27.240Z,8.07
2023-03-29T15:19:33.581Z,8.07
2023-03-29T15:24:44.515Z,16.54
2023-03-29T15:30:00.776Z,8.93
2023-03-29T15:35:09.288Z,9.11
2023-03-29T15:40:17.020Z,8.46
2023-03-29T15:45:25.868Z,7.95
2023-03-29T15:50:31.738Z,8.18
2023-03-29T15:55:40.797Z,8.98
2023-03-29T16:00:50.657Z,10.16
2023-03-29T16:05:57.019Z,9.87
2023-03-29T16:11:02.584Z,9.63
2023-03-29T16:16:10.742Z,12.08
2023-03-29T16:21:18.509Z,10.40
2023-03-29T16:26:26.203Z,9.71
2023-03-29T16:31:34.066Z,8.98
2023-03-29T16:36:37.594Z,9.83
2023-03-29T16:41:41.843Z,9.72
2023-03-29T16:46:46.594Z,25.06
2023-03-29T16:51:50.099Z,11.66
2023-03-29T16:56:53.600Z,9.67
2023-03-29T17:01:58.461Z,12.81
2023-03-29T17:07:01.940Z,10.14
2023-03-29T17:12:07.671Z,10.38
2023-03-29T17:17:12.371Z,16.26
2023-03-29T17:22:18.969Z,10.39
2023-03-29T17:27:22.319Z,12.45
2023-03-29T17:32:27.244Z,12.17
2023-03-29T17:37:30.770Z,10.70
2023-03-29T17:42:34.155Z,10.88
2023-03-29T17:47:41.965Z,11.61
2023-03-29T17:52:45.413Z,12.28
2023-03-29T17:57:51.797Z,11.37
2023-03-29T18:02:56.697Z,13.34
2023-03-29T18:08:00.149Z,15.12
2023-03-29T18:13:03.683Z,16.86
2023-03-29T18:18:08.568Z,15.31
2023-03-29T18:23:11.974Z,19.24
2023-03-29T18:28:15.673Z,18.48
2023-03-29T18:33:25.774Z,17.26
2023-03-29T18:38:29.198Z,17.06
2023-03-29T18:43:33.962Z,16.74
2023-03-29T18:48:39.855Z,14.63
2023-03-29T18:53:44.419Z,15.62
2023-03-29T18:58:48.324Z,15.46
2023-03-29T19:03:55.536Z,16.11
2023-03-29T19:09:05.183Z,17.45
2023-03-29T19:14:09.330Z,18.32
2023-03-29T19:19:16.424Z,17.87
2023-03-29T19:24:22.052Z,17.80
2023-03-29T19:29:27.742Z,18.91
2023-03-29T19:34:32.537Z,22.23
2023-03-29T19:39:36.035Z,19.41
2023-03-29T19:44:39.638Z,19.97
2023-03-29T19:49:47.375Z,20.59
2023-03-29T19:54:53.022Z,20.36
2023-03-29T19:59:58.664Z,20.85
2023-03-29T20:05:04.393Z,23.36
2023-03-29T20:10:09.853Z,23.53
2023-03-29T20:15:13.275Z,21.03
2023-03-29T20:20:18.248Z,20.39
2023-03-29T20:25:23.838Z,20.78
2023-03-29T20:30:27.321Z,21.78
2023-03-29T20:35:32.364Z,23.15
2023-03-29T20:40:37.245Z,23.13
2023-03-29T20:45:52.606Z,24.12
2023-03-29T20:50:59.007Z,23.46
2023-03-29T20:56:06.536Z,24.43
2023-03-29T21:01:10.144Z,25.16
2023-03-29T21:06:15.115Z,24.34
2023-03-29T21:11:18.545Z,25.73
2023-03-29T21:16:22.136Z,26.22
2023-03-29T21:21:27.054Z,25.82
2023-03-29T21:26:33.518Z,28.54
2023-03-29T21:31:37.189Z,27.34
2023-03-29T21:36:42.501Z,28.68
2023-03-29T21:41:45.987Z,34.02
2023-03-29T21:46:49.465Z,31.18
2023-03-29T21:51:54.420Z,30.68
2023-03-29T21:57:00.217Z,32.13
2023-03-29T22:02:03.782Z,32.34
2023-03-29T22:07:10.704Z,31.15
2023-03-29T22:12:14.112Z,33.66
2023-03-29T22:17:19.777Z,31.23
2023-03-29T22:22:27.177Z,31.46
2023-03-29T22:27:30.717Z,32.47
2023-03-29T22:32:36.549Z,32.99
2023-03-29T22:37:45.874Z,32.30
2023-03-29T22:42:49.232Z,30.85
2023-03-29T22:47:52.694Z,29.74
2023-03-29T22:52:57.475Z,29.84
2023-03-29T22:58:01.159Z,29.21
2023-03-29T23:03:04.702Z,28.67
2023-03-29T23:08:09.593Z,28.98
2023-03-29T23:13:13.683Z,29.03
2023-03-29T23:18:18.358Z,29.50
2023-03-29T23:23:26.950Z,30.09
2023-03-29T23:28:31.725Z,30.43
2023-03-29T23:33:36.147Z,30.35
2023-03-29T23:38:42.476Z,28.39
2023-03-29T23:43:50.215Z,31.75
2023-03-29T23:48:56.023Z,28.02
2023-03-29T23:54:00.752Z,26.98
2023-03-29T23:59:04.534Z,26.01
